sensor_id;sensor_type;location;lat;lon;timestamp;temperature;humidity
17988;DHT22;9119;50.932;5.342;2023-05-07T00:01:43;16.70;99.90
17988;DHT22;9119;50.932;5.342;2023-05-07T00:04:09;16.60;99.90
17988;DHT22;9119;50.932;5.342;2023-05-07T00:06:34;16.60;99.90
17988;DHT22;9119;50.932;5.342;2023-05-07T00:09:01;16.70;99.90
17988;DHT22;9119;50.932;5.342;2023-05-07T00:11:27;16.80;99.90
17988;DHT22;9119;50.932;5.342;2023-05-07T00:13:53;17.00;99.90
17988;DHT22;9119;50.932;5.342;2023-05-07T00:16:19;17.10;99.90
17988;DHT22;9119;50.932;5.342;2023-05-07T00:18:45;17.00;99.90
17988;DHT22;9119;50.932;5.342;2023-05-07T00:21:11;16.70;99.90
17988;DHT22;9119;50.932;5.342;2023-05-07T00:23:37;16.70;99.90
17988;DHT22;9119;50.932;5.342;2023-05-07T00:26:03;16.80;99.90
17988;DHT22;9119;50.932;5.342;2023-05-07T00:28:29;16.80;99.90
17988;DHT22;9119;50.932;5.342;2023-05-07T00:30:54;16.70;99.90
17988;DHT22;9119;50.932;5.342;2023-05-07T00:33:20;16.40;99.90
17988;DHT22;9119;50.932;5.342;2023-05-07T00:35:48;16.50;99.90
17988;DHT22;9119;50.932;5.342;2023-05-07T00:38:14;16.50;99.90
17988;DHT22;9119;50.932;5.342;2023-05-07T00:40:39;16.40;99.90
17988;DHT22;9119;50.932;5.342;2023-05-07T00:43:05;16.40;99.90
17988;DHT22;9119;50.932;5.342;2023-05-07T00:45:33;16.30;99.90
17988;DHT22;9119;50.932;5.342;2023-05-07T00:48:00;16.20;99.90
17988;DHT22;9119;50.932;5.342;2023-05-07T00:50:29;16.20;99.90
17988;DHT22;9119;50.932;5.342;2023-05-07T00:52:56;16.30;99.90
17988;DHT22;9119;50.932;5.342;2023-05-07T00:55:23;16.20;99.90
17988;DHT22;9119;50.932;5.342;2023-05-07T00:57:49;16.20;99.90
17988;DHT22;9119;50.932;5.342;2023-05-07T01:00:16;16.30;99.90
17988;DHT22;9119;50.932;5.342;2023-05-07T01:02:43;16.20;99.90
17988;DHT22;9119;50.932;5.342;2023-05-07T01:05:11;16.20;99.90
17988;DHT22;9119;50.932;5.342;2023-05-07T01:07:40;16.20;99.90
17988;DHT22;9119;50.932;5.342;2023-05-07T01:10:08;16.30;99.90
17988;DHT22;9119;50.932;5.342;2023-05-07T01:12:37;16.30;99.90
17988;DHT22;9119;50.932;5.342;2023-05-07T01:15:03;16.40;99.90
17988;DHT22;9119;50.932;5.342;2023-05-07T01:17:34;16.50;99.90
17988;DHT22;9119;50.932;5.342;2023-05-07T01:20:00;16.40;99.90
17988;DHT22;9119;50.932;5.342;2023-05-07T01:22:37;16.30;99.90
17988;DHT22;9119;50.932;5.342;2023-05-07T01:25:04;16.30;99.90
17988;DHT22;9119;50.932;5.342;2023-05-07T01:27:31;16.30;99.90
17988;DHT22;9119;50.932;5.342;2023-05-07T01:29:56;16.30;99.90
17988;DHT22;9119;50.932;5.342;2023-05-07T01:32:35;16.20;99.90
17988;DHT22;9119;50.932;5.342;2023-05-07T01:35:05;16.20;99.90
17988;DHT22;9119;50.932;5.342;2023-05-07T01:37:32;16.20;99.90
17988;DHT22;9119;50.932;5.342;2023-05-07T01:39:58;16.10;99.90
17988;DHT22;9119;50.932;5.342;2023-05-07T01:42:24;16.10;99.90
17988;DHT22;9119;50.932;5.342;2023-05-07T01:44:49;16.00;99.90
17988;DHT22;9119;50.932;5.342;2023-05-07T01:47:16;15.90;99.90
17988;DHT22;9119;50.932;5.342;2023-05-07T01:49:42;15.80;99.90
17988;DHT22;9119;50.932;5.342;2023-05-07T01:52:10;15.80;99.90
17988;DHT22;9119;50.932;5.342;2023-05-07T01:54:36;15.70;99.90
17988;DHT22;9119;50.932;5.342;2023-05-07T01:57:02;15.80;99.90
17988;DHT22;9119;50.932;5.342;2023-05-07T01:59:28;16.00;99.90
17988;DHT22;9119;50.932;5.342;2023-05-07T02:01:54;15.90;99.90
17988;DHT22;9119;50.932;5.342;2023-05-07T02:04:19;15.90;99.90
17988;DHT22;9119;50.932;5.342;2023-05-07T02:06:45;15.80;99.90
17988;DHT22;9119;50.932;5.342;2023-05-07T02:09:13;15.80;99.90
17988;DHT22;9119;50.932;5.342;2023-05-07T02:11:40;15.90;99.90
17988;DHT22;9119;50.932;5.342;2023-05-07T02:14:06;15.90;99.90
17988;DHT22;9119;50.932;5.342;2023-05-07T02:16:31;15.80;99.90
17988;DHT22;9119;50.932;5.342;2023-05-07T02:18:57;15.80;99.90
17988;DHT22;9119;50.932;5.342;2023-05-07T02:21:24;15.80;99.90
17988;DHT22;9119;50.932;5.342;2023-05-07T02:23:50;15.80;99.90
17988;DHT22;9119;50.932;5.342;2023-05-07T02:26:16;15.70;99.90
17988;DHT22;9119;50.932;5.342;2023-05-07T02:28:41;15.70;99.90
17988;DHT22;9119;50.932;5.342;2023-05-07T02:31:07;15.80;99.90
17988;DHT22;9119;50.932;5.342;2023-05-07T02:33:33;15.80;99.90
17988;DHT22;9119;50.932;5.342;2023-05-07T02:36:09;15.80;99.90
17988;DHT22;9119;50.932;5.342;2023-05-07T02:38:35;15.70;99.90
17988;DHT22;9119;50.932;5.342;2023-05-07T02:41:01;15.70;99.90
17988;DHT22;9119;50.932;5.342;2023-05-07T02:43:27;15.70;99.90
17988;DHT22;9119;50.932;5.342;2023-05-07T02:46:07;15.60;99.90
17988;DHT22;9119;50.932;5.342;2023-05-07T02:48:34;15.60;99.90
17988;DHT22;9119;50.932;5.342;2023-05-07T02:51:00;15.50;99.90
17988;DHT22;9119;50.932;5.342;2023-05-07T02:53:26;15.50;99.90
17988;DHT22;9119;50.932;5.342;2023-05-07T02:55:53;15.50;99.90
17988;DHT22;9119;50.932;5.342;2023-05-07T02:58:19;15.60;99.90
17988;DHT22;9119;50.932;5.342;2023-05-07T03:00:45;15.60;99.90
17988;DHT22;9119;50.932;5.342;2023-05-07T03:03:11;15.60;99.90
17988;DHT22;9119;50.932;5.342;2023-05-07T03:05:36;15.60;99.90
17988;DHT22;9119;50.932;5.342;2023-05-07T03:08:02;15.50;99.90
17988;DHT22;9119;50.932;5.342;2023-05-07T03:10:29;15.50;99.90
17988;DHT22;9119;50.932;5.342;2023-05-07T03:12:55;15.50;99.90
17988;DHT22;9119;50.932;5.342;2023-05-07T03:15:21;15.40;99.90
17988;DHT22;9119;50.932;5.342;2023-05-07T03:17:50;15.50;99.90
17988;DHT22;9119;50.932;5.342;2023-05-07T03:20:15;15.50;99.90
17988;DHT22;9119;50.932;5.342;2023-05-07T03:22:41;15.40;99.90
17988;DHT22;9119;50.932;5.342;2023-05-07T03:25:08;15.50;99.90
17988;DHT22;9119;50.932;5.342;2023-05-07T03:27:34;15.60;99.90
17988;DHT22;9119;50.932;5.342;2023-05-07T03:29:59;15.60;99.90
17988;DHT22;9119;50.932;5.342;2023-05-07T03:32:25;15.50;99.90
17988;DHT22;9119;50.932;5.342;2023-05-07T03:34:51;15.50;99.90
17988;DHT22;9119;50.932;5.342;2023-05-07T03:37:16;15.50;99.90
17988;DHT22;9119;50.932;5.342;2023-05-07T03:39:42;15.50;99.90
17988;DHT22;9119;50.932;5.342;2023-05-07T03:42:08;15.50;99.90
17988;DHT22;9119;50.932;5.342;2023-05-07T03:44:33;15.50;99.90
17988;DHT22;9119;50.932;5.342;2023-05-07T03:47:01;15.50;99.90
17988;DHT22;9119;50.932;5.342;2023-05-07T03:49:27;15.40;99.90
17988;DHT22;9119;50.932;5.342;2023-05-07T03:51:53;15.30;99.90
17988;DHT22;9119;50.932;5.342;2023-05-07T03:54:19;15.30;99.90
17988;DHT22;9119;50.932;5.342;2023-05-07T03:56:44;15.30;99.90
17988;DHT22;9119;50.932;5.342;2023-05-07T03:59:12;15.40;99.90
17988;DHT22;9119;50.932;5.342;2023-05-07T04:01:38;15.40;99.90
17988;DHT22;9119;50.932;5.342;2023-05-07T04:04:04;15.50;99.90
17988;DHT22;9119;50.932;5.342;2023-05-07T04:06:30;15.50;99.90
17988;DHT22;9119;50.932;5.342;2023-05-07T04:08:56;15.50;99.90
17988;DHT22;9119;50.932;5.342;2023-05-07T04:11:22;15.60;99.90
17988;DHT22;9119;50.932;5.342;2023-05-07T04:13:47;15.70;99.90
17988;DHT22;9119;50.932;5.342;2023-05-07T04:16:13;15.70;99.90
17988;DHT22;9119;50.932;5.342;2023-05-07T04:18:39;15.40;99.90
17988;DHT22;9119;50.932;5.342;2023-05-07T04:21:05;15.60;99.90
17988;DHT22;9119;50.932;5.342;2023-05-07T04:23:31;15.60;99.90
17988;DHT22;9119;50.932;5.342;2023-05-07T04:25:57;15.60;99.90
17988;DHT22;9119;50.932;5.342;2023-05-07T04:28:23;15.70;99.90
17988;DHT22;9119;50.932;5.342;2023-05-07T04:30:49;15.70;99.90
17988;DHT22;9119;50.932;5.342;2023-05-07T04:33:15;15.70;99.90
17988;DHT22;9119;50.932;5.342;2023-05-07T04:35:43;15.60;99.90
17988;DHT22;9119;50.932;5.342;2023-05-07T04:38:09;15.60;99.90
17988;DHT22;9119;50.932;5.342;2023-05-07T04:40:36;15.60;99.90
17988;DHT22;9119;50.932;5.342;2023-05-07T04:43:01;15.60;99.90
17988;DHT22;9119;50.932;5.342;2023-05-07T04:45:27;15.60;99.90
17988;DHT22;9119;50.932;5.342;2023-05-07T04:47:53;15.60;99.90
17988;DHT22;9119;50.932;5.342;2023-05-07T04:50:18;15.60;99.90
17988;DHT22;9119;50.932;5.342;2023-05-07T04:52:45;15.50;99.90
17988;DHT22;9119;50.932;5.342;2023-05-07T04:55:11;15.50;99.90
17988;DHT22;9119;50.932;5.342;2023-05-07T04:57:36;15.60;99.90
17988;DHT22;9119;50.932;5.342;2023-05-07T05:00:05;15.60;99.90
17988;DHT22;9119;50.932;5.342;2023-05-07T05:02:33;15.60;99.90
17988;DHT22;9119;50.932;5.342;2023-05-07T05:04:59;15.60;99.90
17988;DHT22;9119;50.932;5.342;2023-05-07T05:07:25;15.70;99.90
17988;DHT22;9119;50.932;5.342;2023-05-07T05:09:50;15.80;99.90
17988;DHT22;9119;50.932;5.342;2023-05-07T05:12:16;15.80;99.90
17988;DHT22;9119;50.932;5.342;2023-05-07T05:14:42;15.80;99.90
17988;DHT22;9119;50.932;5.342;2023-05-07T05:17:08;15.70;99.90
17988;DHT22;9119;50.932;5.342;2023-05-07T05:19:33;15.80;99.90
17988;DHT22;9119;50.932;5.342;2023-05-07T05:21:59;15.80;99.90
17988;DHT22;9119;50.932;5.342;2023-05-07T05:24:26;15.70;99.90
17988;DHT22;9119;50.932;5.342;2023-05-07T05:26:53;15.70;99.90
17988;DHT22;9119;50.932;5.342;2023-05-07T05:29:20;15.80;99.90
17988;DHT22;9119;50.932;5.342;2023-05-07T05:31:45;15.80;99.90
17988;DHT22;9119;50.932;5.342;2023-05-07T05:34:11;15.70;99.90
17988;DHT22;9119;50.932;5.342;2023-05-07T05:36:36;15.80;99.90
17988;DHT22;9119;50.932;5.342;2023-05-07T05:39:02;15.90;99.90
17988;DHT22;9119;50.932;5.342;2023-05-07T05:41:28;15.90;99.90
17988;DHT22;9119;50.932;5.342;2023-05-07T05:43:54;16.10;99.90
17988;DHT22;9119;50.932;5.342;2023-05-07T05:46:19;16.20;99.90
17988;DHT22;9119;50.932;5.342;2023-05-07T05:48:45;16.30;99.90
17988;DHT22;9119;50.932;5.342;2023-05-07T05:51:11;16.40;99.90
17988;DHT22;9119;50.932;5.342;2023-05-07T05:53:36;16.40;99.90
17988;DHT22;9119;50.932;5.342;2023-05-07T05:56:02;16.40;99.90
17988;DHT22;9119;50.932;5.342;2023-05-07T05:58:28;16.60;99.90
17988;DHT22;9119;50.932;5.342;2023-05-07T06:00:54;16.60;99.90
17988;DHT22;9119;50.932;5.342;2023-05-07T06:03:19;16.60;99.90
17988;DHT22;9119;50.932;5.342;2023-05-07T06:05:45;16.70;99.90
17988;DHT22;9119;50.932;5.342;2023-05-07T06:08:11;16.70;99.90
17988;DHT22;9119;50.932;5.342;2023-05-07T06:10:37;16.70;99.90
17988;DHT22;9119;50.932;5.342;2023-05-07T06:13:03;16.60;99.90
17988;DHT22;9119;50.932;5.342;2023-05-07T06:15:28;16.70;99.90
17988;DHT22;9119;50.932;5.342;2023-05-07T06:17:54;16.80;99.90
17988;DHT22;9119;50.932;5.342;2023-05-07T06:20:22;16.80;99.90
17988;DHT22;9119;50.932;5.342;2023-05-07T06:22:49;16.90;99.90
17988;DHT22;9119;50.932;5.342;2023-05-07T06:25:15;17.00;99.90
17988;DHT22;9119;50.932;5.342;2023-05-07T06:27:40;17.10;99.90
17988;DHT22;9119;50.932;5.342;2023-05-07T06:30:07;17.10;99.90
17988;DHT22;9119;50.932;5.342;2023-05-07T06:32:32;17.10;99.90
17988;DHT22;9119;50.932;5.342;2023-05-07T06:34:59;17.20;99.90
17988;DHT22;9119;50.932;5.342;2023-05-07T06:37:25;17.20;99.90
17988;DHT22;9119;50.932;5.342;2023-05-07T06:39:51;17.30;99.90
17988;DHT22;9119;50.932;5.342;2023-05-07T06:42:16;17.40;99.90
17988;DHT22;9119;50.932;5.342;2023-05-07T06:44:42;17.40;99.90
17988;DHT22;9119;50.932;5.342;2023-05-07T06:47:08;17.30;99.90
17988;DHT22;9119;50.932;5.342;2023-05-07T06:49:33;17.40;99.90
17988;DHT22;9119;50.932;5.342;2023-05-07T06:51:59;17.40;99.90
17988;DHT22;9119;50.932;5.342;2023-05-07T06:54:28;17.50;99.90
17988;DHT22;9119;50.932;5.342;2023-05-07T06:56:54;17.50;99.90
17988;DHT22;9119;50.932;5.342;2023-05-07T06:59:22;17.50;99.90
17988;DHT22;9119;50.932;5.342;2023-05-07T07:01:47;17.40;99.90
17988;DHT22;9119;50.932;5.342;2023-05-07T07:04:13;17.50;99.90
17988;DHT22;9119;50.932;5.342;2023-05-07T07:06:38;17.50;99.90
17988;DHT22;9119;50.932;5.342;2023-05-07T07:09:04;17.70;99.90
17988;DHT22;9119;50.932;5.342;2023-05-07T07:11:30;17.70;99.90
17988;DHT22;9119;50.932;5.342;2023-05-07T07:13:56;17.80;99.90
17988;DHT22;9119;50.932;5.342;2023-05-07T07:16:22;17.80;99.90
17988;DHT22;9119;50.932;5.342;2023-05-07T07:18:47;17.90;99.90
17988;DHT22;9119;50.932;5.342;2023-05-07T07:21:13;18.00;99.90
17988;DHT22;9119;50.932;5.342;2023-05-07T07:23:39;18.00;99.90
17988;DHT22;9119;50.932;5.342;2023-05-07T07:26:04;18.10;99.90
17988;DHT22;9119;50.932;5.342;2023-05-07T07:28:31;18.10;99.90
17988;DHT22;9119;50.932;5.342;2023-05-07T07:30:57;18.30;99.90
17988;DHT22;9119;50.932;5.342;2023-05-07T07:33:22;18.30;99.90
17988;DHT22;9119;50.932;5.342;2023-05-07T07:35:48;18.40;99.90
17988;DHT22;9119;50.932;5.342;2023-05-07T07:38:14;18.40;99.90
17988;DHT22;9119;50.932;5.342;2023-05-07T07:40:39;18.40;99.90
17988;DHT22;9119;50.932;5.342;2023-05-07T07:43:05;18.50;99.90
17988;DHT22;9119;50.932;5.342;2023-05-07T07:45:31;18.40;99.90
17988;DHT22;9119;50.932;5.342;2023-05-07T07:47:57;18.40;99.90
17988;DHT22;9119;50.932;5.342;2023-05-07T07:50:22;18.50;99.90
17988;DHT22;9119;50.932;5.342;2023-05-07T07:52:48;18.50;99.90
17988;DHT22;9119;50.932;5.342;2023-05-07T07:55:14;18.60;99.90
17988;DHT22;9119;50.932;5.342;2023-05-07T07:57:43;18.70;99.90
17988;DHT22;9119;50.932;5.342;2023-05-07T08:00:09;18.80;99.90
17988;DHT22;9119;50.932;5.342;2023-05-07T08:02:35;19.00;99.90
17988;DHT22;9119;50.932;5.342;2023-05-07T08:05:01;19.10;99.90
17988;DHT22;9119;50.932;5.342;2023-05-07T08:07:27;19.20;99.90
17988;DHT22;9119;50.932;5.342;2023-05-07T08:09:52;19.40;99.90
17988;DHT22;9119;50.932;5.342;2023-05-07T08:12:18;19.40;99.90
17988;DHT22;9119;50.932;5.342;2023-05-07T08:14:44;19.40;99.90
17988;DHT22;9119;50.932;5.342;2023-05-07T08:17:10;19.60;99.90
17988;DHT22;9119;50.932;5.342;2023-05-07T08:19:35;19.70;99.90
17988;DHT22;9119;50.932;5.342;2023-05-07T08:22:02;19.70;99.90
17988;DHT22;9119;50.932;5.342;2023-05-07T08:24:28;19.70;99.90
17988;DHT22;9119;50.932;5.342;2023-05-07T08:26:54;19.80;99.90
17988;DHT22;9119;50.932;5.342;2023-05-07T08:29:19;19.80;99.90
17988;DHT22;9119;50.932;5.342;2023-05-07T08:31:45;19.70;99.90
17988;DHT22;9119;50.932;5.342;2023-05-07T08:34:11;19.80;99.90
17988;DHT22;9119;50.932;5.342;2023-05-07T08:36:36;19.60;99.90
17988;DHT22;9119;50.932;5.342;2023-05-07T08:39:02;19.50;99.90
17988;DHT22;9119;50.932;5.342;2023-05-07T08:41:28;19.60;99.90
17988;DHT22;9119;50.932;5.342;2023-05-07T08:43:57;19.60;99.90
17988;DHT22;9119;50.932;5.342;2023-05-07T08:46:25;19.70;99.90
17988;DHT22;9119;50.932;5.342;2023-05-07T08:48:52;19.60;99.90
17988;DHT22;9119;50.932;5.342;2023-05-07T08:51:20;19.60;99.90
17988;DHT22;9119;50.932;5.342;2023-05-07T08:53:47;19.80;99.90
17988;DHT22;9119;50.932;5.342;2023-05-07T08:56:14;19.90;99.90
17988;DHT22;9119;50.932;5.342;2023-05-07T08:58:42;19.90;99.90
17988;DHT22;9119;50.932;5.342;2023-05-07T09:01:10;19.90;99.90
17988;DHT22;9119;50.932;5.342;2023-05-07T09:03:38;20.00;99.90
17988;DHT22;9119;50.932;5.342;2023-05-07T09:06:04;20.60;99.90
17988;DHT22;9119;50.932;5.342;2023-05-07T09:08:32;21.10;99.90
17988;DHT22;9119;50.932;5.342;2023-05-07T09:10:59;21.30;99.90
17988;DHT22;9119;50.932;5.342;2023-05-07T09:13:24;21.50;99.90
17988;DHT22;9119;50.932;5.342;2023-05-07T09:15:50;21.70;99.90
17988;DHT22;9119;50.932;5.342;2023-05-07T09:18:16;21.80;99.90
17988;DHT22;9119;50.932;5.342;2023-05-07T09:20:41;21.60;99.90
17988;DHT22;9119;50.932;5.342;2023-05-07T09:23:08;21.90;99.90
17988;DHT22;9119;50.932;5.342;2023-05-07T09:25:35;21.70;99.90
17988;DHT22;9119;50.932;5.342;2023-05-07T09:28:03;21.70;99.90
17988;DHT22;9119;50.932;5.342;2023-05-07T09:30:33;21.90;99.90
17988;DHT22;9119;50.932;5.342;2023-05-07T09:33:00;21.80;99.90
17988;DHT22;9119;50.932;5.342;2023-05-07T09:35:27;22.20;99.90
17988;DHT22;9119;50.932;5.342;2023-05-07T09:37:57;22.50;99.90
17988;DHT22;9119;50.932;5.342;2023-05-07T09:40:28;22.50;99.90
17988;DHT22;9119;50.932;5.342;2023-05-07T09:42:54;22.20;99.90
17988;DHT22;9119;50.932;5.342;2023-05-07T09:45:27;22.20;99.90
17988;DHT22;9119;50.932;5.342;2023-05-07T09:47:58;22.30;99.90
17988;DHT22;9119;50.932;5.342;2023-05-07T09:50:28;22.10;99.90
17988;DHT22;9119;50.932;5.342;2023-05-07T09:52:55;22.30;99.90
17988;DHT22;9119;50.932;5.342;2023-05-07T09:55:22;22.20;99.90
17988;DHT22;9119;50.932;5.342;2023-05-07T09:57:51;22.20;99.90
17988;DHT22;9119;50.932;5.342;2023-05-07T10:00:21;22.30;99.90
17988;DHT22;9119;50.932;5.342;2023-05-07T10:02:49;22.30;99.90
17988;DHT22;9119;50.932;5.342;2023-05-07T10:05:21;22.20;99.90
17988;DHT22;9119;50.932;5.342;2023-05-07T10:07:48;22.00;99.90
17988;DHT22;9119;50.932;5.342;2023-05-07T10:10:14;22.00;99.90
17988;DHT22;9119;50.932;5.342;2023-05-07T10:12:43;21.80;99.90
17988;DHT22;9119;50.932;5.342;2023-05-07T10:15:10;21.60;99.90
17988;DHT22;9119;50.932;5.342;2023-05-07T10:17:40;21.30;99.90
17988;DHT22;9119;50.932;5.342;2023-05-07T10:20:07;21.20;99.90
17988;DHT22;9119;50.932;5.342;2023-05-07T10:22:45;21.20;99.90
17988;DHT22;9119;50.932;5.342;2023-05-07T10:25:26;21.10;99.90
17988;DHT22;9119;50.932;5.342;2023-05-07T10:27:55;20.90;99.90
17988;DHT22;9119;50.932;5.342;2023-05-07T10:33:23;20.60;99.90
17988;DHT22;9119;50.932;5.342;2023-05-07T10:35:51;20.50;99.90
17988;DHT22;9119;50.932;5.342;2023-05-07T10:38:20;20.30;99.90
17988;DHT22;9119;50.932;5.342;2023-05-07T10:40:46;20.30;99.90
17988;DHT22;9119;50.932;5.342;2023-05-07T10:43:12;20.30;99.90
17988;DHT22;9119;50.932;5.342;2023-05-07T10:45:37;20.20;99.90
17988;DHT22;9119;50.932;5.342;2023-05-07T10:48:16;20.20;99.90
17988;DHT22;9119;50.932;5.342;2023-05-07T10:50:43;20.30;99.90
17988;DHT22;9119;50.932;5.342;2023-05-07T10:55:47;20.30;99.90
17988;DHT22;9119;50.932;5.342;2023-05-07T10:58:22;20.40;99.90
17988;DHT22;9119;50.932;5.342;2023-05-07T11:00:49;20.40;99.90
17988;DHT22;9119;50.932;5.342;2023-05-07T11:03:18;20.40;99.90
17988;DHT22;9119;50.932;5.342;2023-05-07T11:05:44;20.20;99.90
17988;DHT22;9119;50.932;5.342;2023-05-07T11:08:10;19.90;99.90
17988;DHT22;9119;50.932;5.342;2023-05-07T11:10:56;20.00;99.90
17988;DHT22;9119;50.932;5.342;2023-05-07T11:13:43;20.20;99.90
17988;DHT22;9119;50.932;5.342;2023-05-07T11:16:23;20.30;99.90
17988;DHT22;9119;50.932;5.342;2023-05-07T11:18:53;20.20;99.90
17988;DHT22;9119;50.932;5.342;2023-05-07T11:21:39;20.10;99.90
17988;DHT22;9119;50.932;5.342;2023-05-07T11:24:07;19.90;99.90
17988;DHT22;9119;50.932;5.342;2023-05-07T11:26:46;19.00;99.90
17988;DHT22;9119;50.932;5.342;2023-05-07T11:29:13;19.40;99.90
17988;DHT22;9119;50.932;5.342;2023-05-07T11:31:40;19.30;99.90
17988;DHT22;9119;50.932;5.342;2023-05-07T11:34:06;19.30;99.90
17988;DHT22;9119;50.932;5.342;2023-05-07T11:36:33;19.20;99.90
17988;DHT22;9119;50.932;5.342;2023-05-07T11:38:59;19.20;99.90
17988;DHT22;9119;50.932;5.342;2023-05-07T11:41:35;19.10;99.90
17988;DHT22;9119;50.932;5.342;2023-05-07T11:44:02;18.80;99.90
17988;DHT22;9119;50.932;5.342;2023-05-07T11:46:28;18.90;99.90
17988;DHT22;9119;50.932;5.342;2023-05-07T11:48:55;18.90;99.90
17988;DHT22;9119;50.932;5.342;2023-05-07T11:51:25;18.90;99.90
17988;DHT22;9119;50.932;5.342;2023-05-07T11:53:53;18.80;99.90
17988;DHT22;9119;50.932;5.342;2023-05-07T11:56:19;18.80;99.90
17988;DHT22;9119;50.932;5.342;2023-05-07T11:58:46;18.50;99.90
17988;DHT22;9119;50.932;5.342;2023-05-07T12:01:13;18.50;99.90
17988;DHT22;9119;50.932;5.342;2023-05-07T12:03:43;18.60;99.90
17988;DHT22;9119;50.932;5.342;2023-05-07T12:06:12;18.60;99.90
17988;DHT22;9119;50.932;5.342;2023-05-07T12:08:39;18.50;99.90
17988;DHT22;9119;50.932;5.342;2023-05-07T12:11:13;18.50;99.90
17988;DHT22;9119;50.932;5.342;2023-05-07T12:13:39;18.40;99.90
17988;DHT22;9119;50.932;5.342;2023-05-07T12:16:06;18.50;99.90
17988;DHT22;9119;50.932;5.342;2023-05-07T12:18:33;18.60;99.90
17988;DHT22;9119;50.932;5.342;2023-05-07T12:21:00;18.80;99.90
17988;DHT22;9119;50.932;5.342;2023-05-07T12:23:25;18.80;99.90
17988;DHT22;9119;50.932;5.342;2023-05-07T12:25:51;18.80;99.90
17988;DHT22;9119;50.932;5.342;2023-05-07T12:28:18;18.70;99.90
17988;DHT22;9119;50.932;5.342;2023-05-07T12:30:49;18.90;99.90
17988;DHT22;9119;50.932;5.342;2023-05-07T12:33:23;19.00;99.90
17988;DHT22;9119;50.932;5.342;2023-05-07T12:35:49;18.60;99.90
17988;DHT22;9119;50.932;5.342;2023-05-07T12:38:16;18.80;99.90
17988;DHT22;9119;50.932;5.342;2023-05-07T12:40:47;18.90;99.90
17988;DHT22;9119;50.932;5.342;2023-05-07T12:45:47;19.10;99.90
17988;DHT22;9119;50.932;5.342;2023-05-07T12:48:14;19.30;99.90
17988;DHT22;9119;50.932;5.342;2023-05-07T12:50:39;19.30;99.90
17988;DHT22;9119;50.932;5.342;2023-05-07T12:53:07;19.10;99.90
17988;DHT22;9119;50.932;5.342;2023-05-07T12:55:41;18.90;99.90
17988;DHT22;9119;50.932;5.342;2023-05-07T12:58:07;18.70;99.90
17988;DHT22;9119;50.932;5.342;2023-05-07T13:00:37;18.70;99.90
17988;DHT22;9119;50.932;5.342;2023-05-07T13:03:05;19.00;99.90
17988;DHT22;9119;50.932;5.342;2023-05-07T13:05:34;19.10;99.90
17988;DHT22;9119;50.932;5.342;2023-05-07T13:08:00;19.10;99.90
17988;DHT22;9119;50.932;5.342;2023-05-07T13:10:27;19.00;99.90
17988;DHT22;9119;50.932;5.342;2023-05-07T13:12:54;19.10;99.90
17988;DHT22;9119;50.932;5.342;2023-05-07T13:15:20;19.00;99.90
17988;DHT22;9119;50.932;5.342;2023-05-07T13:17:47;18.90;99.90
17988;DHT22;9119;50.932;5.342;2023-05-07T13:20:12;19.10;99.90
17988;DHT22;9119;50.932;5.342;2023-05-07T13:22:39;19.30;99.90
17988;DHT22;9119;50.932;5.342;2023-05-07T13:25:05;19.40;99.90
17988;DHT22;9119;50.932;5.342;2023-05-07T13:27:34;19.30;99.90
17988;DHT22;9119;50.932;5.342;2023-05-07T13:30:10;19.30;99.90
17988;DHT22;9119;50.932;5.342;2023-05-07T13:32:36;18.90;99.90
17988;DHT22;9119;50.932;5.342;2023-05-07T13:35:04;18.90;99.90
17988;DHT22;9119;50.932;5.342;2023-05-07T13:37:30;18.80;99.90
17988;DHT22;9119;50.932;5.342;2023-05-07T13:39:56;18.80;99.90
17988;DHT22;9119;50.932;5.342;2023-05-07T13:42:21;18.80;99.90
17988;DHT22;9119;50.932;5.342;2023-05-07T13:44:47;19.00;99.90
17988;DHT22;9119;50.932;5.342;2023-05-07T13:47:13;19.40;99.90
17988;DHT22;9119;50.932;5.342;2023-05-07T13:49:38;19.60;99.90
17988;DHT22;9119;50.932;5.342;2023-05-07T13:52:04;19.50;99.90
17988;DHT22;9119;50.932;5.342;2023-05-07T13:54:30;19.40;99.90
17988;DHT22;9119;50.932;5.342;2023-05-07T13:56:55;19.30;99.90
17988;DHT22;9119;50.932;5.342;2023-05-07T13:59:21;19.40;99.90
17988;DHT22;9119;50.932;5.342;2023-05-07T14:01:47;19.50;99.90
17988;DHT22;9119;50.932;5.342;2023-05-07T14:04:13;19.40;99.90
17988;DHT22;9119;50.932;5.342;2023-05-07T14:06:39;19.10;99.90
17988;DHT22;9119;50.932;5.342;2023-05-07T14:09:04;19.10;99.90
17988;DHT22;9119;50.932;5.342;2023-05-07T14:11:30;19.20;99.90
17988;DHT22;9119;50.932;5.342;2023-05-07T14:13:56;19.20;99.90
17988;DHT22;9119;50.932;5.342;2023-05-07T14:16:22;19.20;99.90
17988;DHT22;9119;50.932;5.342;2023-05-07T14:18:48;19.40;99.90
17988;DHT22;9119;50.932;5.342;2023-05-07T14:21:13;19.30;99.90
17988;DHT22;9119;50.932;5.342;2023-05-07T14:23:39;19.30;99.90
17988;DHT22;9119;50.932;5.342;2023-05-07T14:26:05;19.10;99.90
17988;DHT22;9119;50.932;5.342;2023-05-07T14:28:31;19.20;99.90
17988;DHT22;9119;50.932;5.342;2023-05-07T14:30:56;19.30;99.90
17988;DHT22;9119;50.932;5.342;2023-05-07T14:33:22;19.40;99.90
17988;DHT22;9119;50.932;5.342;2023-05-07T14:35:48;19.70;99.90
17988;DHT22;9119;50.932;5.342;2023-05-07T14:38:15;20.00;99.90
17988;DHT22;9119;50.932;5.342;2023-05-07T14:40:45;20.00;99.90
17988;DHT22;9119;50.932;5.342;2023-05-07T14:43:12;20.10;99.90
17988;DHT22;9119;50.932;5.342;2023-05-07T14:45:37;19.70;99.90
17988;DHT22;9119;50.932;5.342;2023-05-07T14:48:03;19.70;99.90
17988;DHT22;9119;50.932;5.342;2023-05-07T14:50:29;19.50;99.90
17988;DHT22;9119;50.932;5.342;2023-05-07T14:52:55;19.60;99.90
17988;DHT22;9119;50.932;5.342;2023-05-07T14:55:20;19.40;99.90
17988;DHT22;9119;50.932;5.342;2023-05-07T14:57:46;19.60;99.90
17988;DHT22;9119;50.932;5.342;2023-05-07T15:00:12;19.60;99.90
17988;DHT22;9119;50.932;5.342;2023-05-07T15:02:38;19.40;99.90
17988;DHT22;9119;50.932;5.342;2023-05-07T15:05:04;19.40;99.90
17988;DHT22;9119;50.932;5.342;2023-05-07T15:07:30;19.30;99.90
17988;DHT22;9119;50.932;5.342;2023-05-07T15:09:59;19.10;99.90
17988;DHT22;9119;50.932;5.342;2023-05-07T15:12:25;19.00;99.90
17988;DHT22;9119;50.932;5.342;2023-05-07T15:14:51;19.10;99.90
17988;DHT22;9119;50.932;5.342;2023-05-07T15:17:16;19.20;99.90
17988;DHT22;9119;50.932;5.342;2023-05-07T15:19:42;19.40;99.90
17988;DHT22;9119;50.932;5.342;2023-05-07T15:22:08;19.30;99.90
17988;DHT22;9119;50.932;5.342;2023-05-07T15:24:33;19.40;99.90
17988;DHT22;9119;50.932;5.342;2023-05-07T15:26:59;19.70;99.90
17988;DHT22;9119;50.932;5.342;2023-05-07T15:29:26;19.80;99.90
17988;DHT22;9119;50.932;5.342;2023-05-07T15:31:52;20.00;99.90
17988;DHT22;9119;50.932;5.342;2023-05-07T15:34:21;19.80;99.90
17988;DHT22;9119;50.932;5.342;2023-05-07T15:36:47;19.90;99.90
17988;DHT22;9119;50.932;5.342;2023-05-07T15:39:12;20.10;99.90
17988;DHT22;9119;50.932;5.342;2023-05-07T15:41:38;20.10;99.90
17988;DHT22;9119;50.932;5.342;2023-05-07T15:44:04;20.20;99.90
17988;DHT22;9119;50.932;5.342;2023-05-07T15:46:29;20.30;99.90
17988;DHT22;9119;50.932;5.342;2023-05-07T15:48:55;20.20;99.90
17988;DHT22;9119;50.932;5.342;2023-05-07T15:51:21;20.30;99.90